sensor_id;sensor_type;location;lat;lon;timestamp;P1;durP1;ratioP1;P2;durP2;ratioP2
32637;SDS011;19045;52.268;10.506;2023-03-23T00:00:52;3.15;;;1.35;;
32637;SDS011;19045;52.268;10.506;2023-03-23T00:03:19;6.45;;;1.50;;
32637;SDS011;19045;52.268;10.506;2023-03-23T00:05:48;4.07;;;1.60;;
32637;SDS011;19045;52.268;10.506;2023-03-23T00:08:17;5.55;;;1.52;;
32637;SDS011;19045;52.268;10.506;2023-03-23T00:10:47;3.80;;;1.80;;
32637;SDS011;19045;52.268;10.506;2023-03-23T00:13:14;5.57;;;1.63;;
32637;SDS011;19045;52.268;10.506;2023-03-23T00:15:44;7.75;;;1.75;;
32637;SDS011;19045;52.268;10.506;2023-03-23T00:18:13;4.57;;;1.85;;
32637;SDS011;19045;52.268;10.506;2023-03-23T00:20:46;4.22;;;1.60;;
32637;SDS011;19045;52.268;10.506;2023-03-23T00:23:15;6.40;;;1.52;;
32637;SDS011;19045;52.268;10.506;2023-03-23T00:25:44;4.75;;;1.30;;
32637;SDS011;19045;52.268;10.506;2023-03-23T00:28:11;2.95;;;1.40;;
32637;SDS011;19045;52.268;10.506;2023-03-23T00:30:39;3.42;;;1.42;;
32637;SDS011;19045;52.268;10.506;2023-03-23T00:33:07;4.22;;;1.10;;
32637;SDS011;19045;52.268;10.506;2023-03-23T00:35:33;4.45;;;1.65;;
32637;SDS011;19045;52.268;10.506;2023-03-23T00:38:00;8.10;;;1.10;;
32637;SDS011;19045;52.268;10.506;2023-03-23T00:40:29;4.47;;;1.38;;
32637;SDS011;19045;52.268;10.506;2023-03-23T00:42:55;5.20;;;1.45;;
32637;SDS011;19045;52.268;10.506;2023-03-23T00:45:22;5.20;;;1.13;;
32637;SDS011;19045;52.268;10.506;2023-03-23T00:47:49;4.10;;;1.48;;
32637;SDS011;19045;52.268;10.506;2023-03-23T00:50:16;3.80;;;1.35;;
32637;SDS011;19045;52.268;10.506;2023-03-23T00:52:43;4.60;;;1.42;;
32637;SDS011;19045;52.268;10.506;2023-03-23T00:55:10;2.15;;;1.20;;
32637;SDS011;19045;52.268;10.506;2023-03-23T00:57:38;2.50;;;1.30;;
32637;SDS011;19045;52.268;10.506;2023-03-23T01:00:05;2.97;;;1.50;;
32637;SDS011;19045;52.268;10.506;2023-03-23T01:02:36;5.28;;;1.38;;
32637;SDS011;19045;52.268;10.506;2023-03-23T01:05:06;2.92;;;1.50;;
32637;SDS011;19045;52.268;10.506;2023-03-23T01:07:32;3.55;;;1.30;;
32637;SDS011;19045;52.268;10.506;2023-03-23T01:09:59;2.38;;;1.30;;
32637;SDS011;19045;52.268;10.506;2023-03-23T01:12:26;2.22;;;1.33;;
32637;SDS011;19045;52.268;10.506;2023-03-23T01:14:54;6.57;;;1.70;;
32637;SDS011;19045;52.268;10.506;2023-03-23T01:17:21;3.38;;;1.40;;
32637;SDS011;19045;52.268;10.506;2023-03-23T01:19:48;4.65;;;1.40;;
32637;SDS011;19045;52.268;10.506;2023-03-23T01:22:14;5.03;;;1.33;;
32637;SDS011;19045;52.268;10.506;2023-03-23T01:24:41;7.00;;;1.83;;
32637;SDS011;19045;52.268;10.506;2023-03-23T01:27:07;4.90;;;1.60;;
32637;SDS011;19045;52.268;10.506;2023-03-23T01:29:34;4.13;;;1.70;;
32637;SDS011;19045;52.268;10.506;2023-03-23T01:32:03;4.22;;;1.55;;
32637;SDS011;19045;52.268;10.506;2023-03-23T01:34:30;4.20;;;1.40;;
32637;SDS011;19045;52.268;10.506;2023-03-23T01:36:56;4.18;;;1.27;;
32637;SDS011;19045;52.268;10.506;2023-03-23T01:39:23;3.47;;;1.42;;
32637;SDS011;19045;52.268;10.506;2023-03-23T01:41:49;5.82;;;1.55;;
32637;SDS011;19045;52.268;10.506;2023-03-23T01:47:21;6.35;;;1.67;;
32637;SDS011;19045;52.268;10.506;2023-03-23T01:49:51;1.90;;;1.02;;
32637;SDS011;19045;52.268;10.506;2023-03-23T01:52:19;3.72;;;1.40;;
32637;SDS011;19045;52.268;10.506;2023-03-23T01:54:50;3.40;;;1.35;;
32637;SDS011;19045;52.268;10.506;2023-03-23T01:57:21;3.55;;;1.42;;
32637;SDS011;19045;52.268;10.506;2023-03-23T01:59:53;2.50;;;1.48;;
32637;SDS011;19045;52.268;10.506;2023-03-23T02:02:24;3.70;;;1.52;;
32637;SDS011;19045;52.268;10.506;2023-03-23T02:04:51;4.32;;;1.30;;
32637;SDS011;19045;52.268;10.506;2023-03-23T02:07:23;3.90;;;1.50;;
32637;SDS011;19045;52.268;10.506;2023-03-23T02:09:50;4.45;;;1.60;;
32637;SDS011;19045;52.268;10.506;2023-03-23T02:12:17;3.75;;;1.50;;
32637;SDS011;19045;52.268;10.506;2023-03-23T02:14:44;2.10;;;1.30;;
32637;SDS011;19045;52.268;10.506;2023-03-23T02:17:12;4.60;;;1.75;;
32637;SDS011;19045;52.268;10.506;2023-03-23T02:19:55;3.60;;;1.60;;
32637;SDS011;19045;52.268;10.506;2023-03-23T02:22:51;3.30;;;1.38;;
32637;SDS011;19045;52.268;10.506;2023-03-23T02:25:35;4.15;;;1.70;;
32637;SDS011;19045;52.268;10.506;2023-03-23T02:28:28;3.70;;;1.60;;
32637;SDS011;19045;52.268;10.506;2023-03-23T02:31:08;4.07;;;1.48;;
32637;SDS011;19045;52.268;10.506;2023-03-23T02:33:53;3.40;;;1.55;;
32637;SDS011;19045;52.268;10.506;2023-03-23T02:36:26;2.38;;;1.27;;
32637;SDS011;19045;52.268;10.506;2023-03-23T02:38:57;3.25;;;1.60;;
32637;SDS011;19045;52.268;10.506;2023-03-23T02:41:30;2.40;;;1.50;;
32637;SDS011;19045;52.268;10.506;2023-03-23T02:44:02;2.75;;;1.60;;
32637;SDS011;19045;52.268;10.506;2023-03-23T02:46:30;4.28;;;1.60;;
32637;SDS011;19045;52.268;10.506;2023-03-23T02:48:59;3.50;;;1.60;;
32637;SDS011;19045;52.268;10.506;2023-03-23T02:51:30;6.70;;;1.90;;
32637;SDS011;19045;52.268;10.506;2023-03-23T02:53:59;2.33;;;1.42;;
32637;SDS011;19045;52.268;10.506;2023-03-23T02:56:26;3.63;;;1.73;;
32637;SDS011;19045;52.268;10.506;2023-03-23T02:58:55;3.35;;;1.73;;
32637;SDS011;19045;52.268;10.506;2023-03-23T03:04:16;4.88;;;1.50;;
32637;SDS011;19045;52.268;10.506;2023-03-23T03:06:47;3.85;;;1.58;;
32637;SDS011;19045;52.268;10.506;2023-03-23T03:09:26;3.20;;;1.98;;
32637;SDS011;19045;52.268;10.506;2023-03-23T03:12:04;2.50;;;1.48;;
32637;SDS011;19045;52.268;10.506;2023-03-23T03:14:36;2.22;;;1.52;;
32637;SDS011;19045;52.268;10.506;2023-03-23T03:17:09;6.53;;;1.35;;
32637;SDS011;19045;52.268;10.506;2023-03-23T03:19:41;3.85;;;1.85;;
32637;SDS011;19045;52.268;10.506;2023-03-23T03:22:12;4.65;;;2.20;;
32637;SDS011;19045;52.268;10.506;2023-03-23T03:24:40;4.75;;;1.88;;
32637;SDS011;19045;52.268;10.506;2023-03-23T03:27:10;5.15;;;2.28;;
32637;SDS011;19045;52.268;10.506;2023-03-23T03:29:40;4.63;;;1.77;;
32637;SDS011;19045;52.268;10.506;2023-03-23T03:32:08;3.75;;;2.00;;
32637;SDS011;19045;52.268;10.506;2023-03-23T03:34:37;4.43;;;1.75;;
32637;SDS011;19045;52.268;10.506;2023-03-23T03:37:06;4.57;;;1.95;;
32637;SDS011;19045;52.268;10.506;2023-03-23T03:39:34;6.47;;;1.98;;
32637;SDS011;19045;52.268;10.506;2023-03-23T03:42:01;6.70;;;2.33;;
32637;SDS011;19045;52.268;10.506;2023-03-23T03:44:28;2.83;;;1.63;;
32637;SDS011;19045;52.268;10.506;2023-03-23T03:46:54;7.20;;;2.40;;
32637;SDS011;19045;52.268;10.506;2023-03-23T03:49:21;5.20;;;1.90;;
32637;SDS011;19045;52.268;10.506;2023-03-23T03:51:48;2.80;;;2.00;;
32637;SDS011;19045;52.268;10.506;2023-03-23T03:54:16;5.28;;;2.17;;
32637;SDS011;19045;52.268;10.506;2023-03-23T03:56:43;7.65;;;2.42;;
32637;SDS011;19045;52.268;10.506;2023-03-23T03:59:10;3.88;;;2.08;;
32637;SDS011;19045;52.268;10.506;2023-03-23T04:01:38;5.93;;;2.50;;
32637;SDS011;19045;52.268;10.506;2023-03-23T04:04:04;3.10;;;1.90;;
32637;SDS011;19045;52.268;10.506;2023-03-23T04:06:32;5.95;;;2.20;;
32637;SDS011;19045;52.268;10.506;2023-03-23T04:09:01;3.88;;;2.03;;
32637;SDS011;19045;52.268;10.506;2023-03-23T04:11:32;4.43;;;2.22;;
32637;SDS011;19045;52.268;10.506;2023-03-23T04:13:59;4.18;;;1.70;;
32637;SDS011;19045;52.268;10.506;2023-03-23T04:16:25;3.47;;;1.77;;
32637;SDS011;19045;52.268;10.506;2023-03-23T04:18:54;4.72;;;1.90;;
32637;SDS011;19045;52.268;10.506;2023-03-23T04:21:22;3.55;;;1.90;;
32637;SDS011;19045;52.268;10.506;2023-03-23T04:23:48;4.40;;;1.90;;
32637;SDS011;19045;52.268;10.506;2023-03-23T04:26:15;6.32;;;2.60;;
32637;SDS011;19045;52.268;10.506;2023-03-23T04:28:44;3.30;;;1.85;;
32637;SDS011;19045;52.268;10.506;2023-03-23T04:31:11;4.97;;;2.28;;
32637;SDS011;19045;52.268;10.506;2023-03-23T04:33:37;1.95;;;1.63;;
32637;SDS011;19045;52.268;10.506;2023-03-23T04:36:05;3.55;;;1.80;;
32637;SDS011;19045;52.268;10.506;2023-03-23T04:38:32;4.20;;;2.30;;
32637;SDS011;19045;52.268;10.506;2023-03-23T04:41:00;3.08;;;1.67;;
32637;SDS011;19045;52.268;10.506;2023-03-23T04:43:27;3.85;;;1.80;;
32637;SDS011;19045;52.268;10.506;2023-03-23T04:45:57;4.00;;;2.15;;
32637;SDS011;19045;52.268;10.506;2023-03-23T04:48:26;4.10;;;1.80;;
32637;SDS011;19045;52.268;10.506;2023-03-23T04:50:55;5.70;;;2.03;;
32637;SDS011;19045;52.268;10.506;2023-03-23T04:53:24;4.95;;;1.80;;
32637;SDS011;19045;52.268;10.506;2023-03-23T04:55:51;5.10;;;1.70;;
32637;SDS011;19045;52.268;10.506;2023-03-23T04:58:17;4.55;;;2.00;;
32637;SDS011;19045;52.268;10.506;2023-03-23T05:00:44;4.50;;;1.83;;
32637;SDS011;19045;52.268;10.506;2023-03-23T05:03:16;4.63;;;1.73;;
32637;SDS011;19045;52.268;10.506;2023-03-23T05:05:43;2.75;;;1.60;;
32637;SDS011;19045;52.268;10.506;2023-03-23T05:08:12;5.20;;;2.40;;
32637;SDS011;19045;52.268;10.506;2023-03-23T05:10:38;7.93;;;2.15;;
32637;SDS011;19045;52.268;10.506;2023-03-23T05:13:05;6.25;;;2.70;;
32637;SDS011;19045;52.268;10.506;2023-03-23T05:15:32;10.10;;;4.22;;
32637;SDS011;19045;52.268;10.506;2023-03-23T05:17:58;7.13;;;4.43;;
32637;SDS011;19045;52.268;10.506;2023-03-23T05:20:27;9.90;;;4.72;;
32637;SDS011;19045;52.268;10.506;2023-03-23T05:22:55;8.75;;;5.13;;
32637;SDS011;19045;52.268;10.506;2023-03-23T05:25:22;9.32;;;4.93;;
32637;SDS011;19045;52.268;10.506;2023-03-23T05:27:49;8.73;;;4.45;;
32637;SDS011;19045;52.268;10.506;2023-03-23T05:30:17;8.25;;;3.80;;
32637;SDS011;19045;52.268;10.506;2023-03-23T05:32:45;6.38;;;3.17;;
32637;SDS011;19045;52.268;10.506;2023-03-23T05:35:15;7.07;;;2.55;;
32637;SDS011;19045;52.268;10.506;2023-03-23T05:37:44;8.57;;;2.38;;
32637;SDS011;19045;52.268;10.506;2023-03-23T05:40:11;4.82;;;2.13;;
32637;SDS011;19045;52.268;10.506;2023-03-23T05:42:38;4.47;;;2.08;;
32637;SDS011;19045;52.268;10.506;2023-03-23T05:45:07;4.53;;;2.25;;
32637;SDS011;19045;52.268;10.506;2023-03-23T05:47:35;5.07;;;2.60;;
32637;SDS011;19045;52.268;10.506;2023-03-23T05:50:03;14.85;;;2.58;;
32637;SDS011;19045;52.268;10.506;2023-03-23T05:52:31;10.93;;;2.83;;
32637;SDS011;19045;52.268;10.506;2023-03-23T05:55:02;5.65;;;2.78;;
32637;SDS011;19045;52.268;10.506;2023-03-23T05:57:29;6.63;;;2.10;;
32637;SDS011;19045;52.268;10.506;2023-03-23T05:59:56;4.15;;;1.85;;
32637;SDS011;19045;52.268;10.506;2023-03-23T06:02:23;4.80;;;1.73;;
32637;SDS011;19045;52.268;10.506;2023-03-23T06:04:53;3.10;;;1.63;;
32637;SDS011;19045;52.268;10.506;2023-03-23T06:07:22;2.45;;;2.00;;
32637;SDS011;19045;52.268;10.506;2023-03-23T06:09:49;3.88;;;1.63;;
32637;SDS011;19045;52.268;10.506;2023-03-23T06:12:17;3.42;;;1.58;;
32637;SDS011;19045;52.268;10.506;2023-03-23T06:14:46;1.75;;;1.33;;
32637;SDS011;19045;52.268;10.506;2023-03-23T06:17:14;4.68;;;1.70;;
32637;SDS011;19045;52.268;10.506;2023-03-23T06:19:41;2.55;;;1.50;;
32637;SDS011;19045;52.268;10.506;2023-03-23T06:22:08;2.60;;;1.30;;
32637;SDS011;19045;52.268;10.506;2023-03-23T06:24:35;8.32;;;1.63;;
32637;SDS011;19045;52.268;10.506;2023-03-23T06:27:03;1.33;;;1.20;;
32637;SDS011;19045;52.268;10.506;2023-03-23T06:29:31;2.35;;;1.45;;
32637;SDS011;19045;52.268;10.506;2023-03-23T06:31:58;2.25;;;1.10;;
32637;SDS011;19045;52.268;10.506;2023-03-23T06:34:27;2.55;;;1.63;;
32637;SDS011;19045;52.268;10.506;2023-03-23T06:36:54;4.82;;;1.50;;
32637;SDS011;19045;52.268;10.506;2023-03-23T06:39:21;4.93;;;1.65;;
32637;SDS011;19045;52.268;10.506;2023-03-23T06:41:48;6.15;;;1.70;;
32637;SDS011;19045;52.268;10.506;2023-03-23T06:44:14;6.63;;;1.58;;
32637;SDS011;19045;52.268;10.506;2023-03-23T06:46:42;2.33;;;1.50;;
32637;SDS011;19045;52.268;10.506;2023-03-23T06:49:09;3.90;;;1.92;;
32637;SDS011;19045;52.268;10.506;2023-03-23T06:51:36;3.28;;;1.85;;
32637;SDS011;19045;52.268;10.506;2023-03-23T06:54:03;3.65;;;1.50;;
32637;SDS011;19045;52.268;10.506;2023-03-23T06:56:30;5.65;;;1.92;;
32637;SDS011;19045;52.268;10.506;2023-03-23T06:58:57;2.15;;;1.60;;
32637;SDS011;19045;52.268;10.506;2023-03-23T07:01:24;2.45;;;1.60;;
32637;SDS011;19045;52.268;10.506;2023-03-23T07:03:53;4.45;;;1.55;;
32637;SDS011;19045;52.268;10.506;2023-03-23T07:06:21;4.85;;;1.60;;
32637;SDS011;19045;52.268;10.506;2023-03-23T07:08:47;3.10;;;1.83;;
32637;SDS011;19045;52.268;10.506;2023-03-23T07:11:14;2.90;;;1.50;;
32637;SDS011;19045;52.268;10.506;2023-03-23T07:13:41;2.78;;;1.73;;
32637;SDS011;19045;52.268;10.506;2023-03-23T07:16:07;2.45;;;1.45;;
32637;SDS011;19045;52.268;10.506;2023-03-23T07:18:35;3.08;;;1.50;;
32637;SDS011;19045;52.268;10.506;2023-03-23T07:21:04;2.03;;;1.65;;
32637;SDS011;19045;52.268;10.506;2023-03-23T07:23:31;3.75;;;1.35;;
32637;SDS011;19045;52.268;10.506;2023-03-23T07:25:58;2.78;;;1.50;;
32637;SDS011;19045;52.268;10.506;2023-03-23T07:28:25;8.88;;;2.30;;
32637;SDS011;19045;52.268;10.506;2023-03-23T07:30:52;2.63;;;1.35;;
32637;SDS011;19045;52.268;10.506;2023-03-23T07:33:18;1.90;;;1.48;;
32637;SDS011;19045;52.268;10.506;2023-03-23T07:35:45;2.78;;;1.33;;
32637;SDS011;19045;52.268;10.506;2023-03-23T07:38:14;3.42;;;1.75;;
32637;SDS011;19045;52.268;10.506;2023-03-23T07:40:40;2.72;;;1.55;;
32637;SDS011;19045;52.268;10.506;2023-03-23T07:43:08;2.75;;;1.67;;
32637;SDS011;19045;52.268;10.506;2023-03-23T07:45:34;2.88;;;1.77;;
32637;SDS011;19045;52.268;10.506;2023-03-23T07:48:01;5.30;;;1.73;;
32637;SDS011;19045;52.268;10.506;2023-03-23T07:50:27;2.40;;;1.50;;
32637;SDS011;19045;52.268;10.506;2023-03-23T07:52:55;3.00;;;1.80;;
32637;SDS011;19045;52.268;10.506;2023-03-23T07:55:23;2.40;;;1.25;;
32637;SDS011;19045;52.268;10.506;2023-03-23T07:57:52;2.15;;;1.52;;
32637;SDS011;19045;52.268;10.506;2023-03-23T08:00:20;2.88;;;1.40;;
32637;SDS011;19045;52.268;10.506;2023-03-23T08:02:49;3.20;;;1.50;;
32637;SDS011;19045;52.268;10.506;2023-03-23T08:05:17;2.33;;;1.50;;
32637;SDS011;19045;52.268;10.506;2023-03-23T08:07:45;3.08;;;1.80;;
32637;SDS011;19045;52.268;10.506;2023-03-23T08:10:13;2.15;;;1.40;;
32637;SDS011;19045;52.268;10.506;2023-03-23T08:12:44;2.53;;;1.20;;
32637;SDS011;19045;52.268;10.506;2023-03-23T08:15:11;3.28;;;1.58;;
32637;SDS011;19045;52.268;10.506;2023-03-23T08:17:39;4.15;;;1.50;;
32637;SDS011;19045;52.268;10.506;2023-03-23T08:20:07;1.60;;;1.13;;
32637;SDS011;19045;52.268;10.506;2023-03-23T08:22:38;1.67;;;1.30;;
32637;SDS011;19045;52.268;10.506;2023-03-23T08:25:06;2.78;;;1.52;;
32637;SDS011;19045;52.268;10.506;2023-03-23T08:27:34;2.70;;;1.30;;
32637;SDS011;19045;52.268;10.506;2023-03-23T08:30:02;2.10;;;1.40;;
32637;SDS011;19045;52.268;10.506;2023-03-23T08:32:32;2.17;;;1.40;;
32637;SDS011;19045;52.268;10.506;2023-03-23T08:34:59;4.10;;;1.40;;
32637;SDS011;19045;52.268;10.506;2023-03-23T08:37:26;2.08;;;1.17;;
32637;SDS011;19045;52.268;10.506;2023-03-23T08:39:52;5.10;;;1.30;;
32637;SDS011;19045;52.268;10.506;2023-03-23T08:42:20;1.83;;;1.30;;
32637;SDS011;19045;52.268;10.506;2023-03-23T08:44:47;2.85;;;1.48;;
32637;SDS011;19045;52.268;10.506;2023-03-23T08:47:15;2.35;;;1.27;;
32637;SDS011;19045;52.268;10.506;2023-03-23T08:49:42;2.38;;;1.63;;
32637;SDS011;19045;52.268;10.506;2023-03-23T08:52:10;2.60;;;1.30;;
32637;SDS011;19045;52.268;10.506;2023-03-23T08:54:37;5.75;;;1.40;;
32637;SDS011;19045;52.268;10.506;2023-03-23T08:57:04;5.78;;;1.80;;
32637;SDS011;19045;52.268;10.506;2023-03-23T08:59:30;1.75;;;1.20;;
32637;SDS011;19045;52.268;10.506;2023-03-23T09:01:57;3.92;;;1.60;;
32637;SDS011;19045;52.268;10.506;2023-03-23T09:04:27;3.45;;;1.25;;
32637;SDS011;19045;52.268;10.506;2023-03-23T09:06:55;3.33;;;1.55;;
32637;SDS011;19045;52.268;10.506;2023-03-23T09:09:23;2.78;;;1.40;;
32637;SDS011;19045;52.268;10.506;2023-03-23T09:11:49;8.40;;;1.50;;
32637;SDS011;19045;52.268;10.506;2023-03-23T09:14:16;5.35;;;1.27;;
32637;SDS011;19045;52.268;10.506;2023-03-23T09:16:43;4.85;;;1.40;;
32637;SDS011;19045;52.268;10.506;2023-03-23T09:19:12;4.05;;;1.60;;
32637;SDS011;19045;52.268;10.506;2023-03-23T09:21:40;3.45;;;1.40;;
32637;SDS011;19045;52.268;10.506;2023-03-23T09:24:06;3.83;;;1.50;;
32637;SDS011;19045;52.268;10.506;2023-03-23T09:26:33;6.45;;;1.60;;
32637;SDS011;19045;52.268;10.506;2023-03-23T09:29:00;5.78;;;1.70;;
32637;SDS011;19045;52.268;10.506;2023-03-23T09:31:26;3.67;;;1.55;;
32637;SDS011;19045;52.268;10.506;2023-03-23T09:33:53;2.70;;;1.45;;
32637;SDS011;19045;52.268;10.506;2023-03-23T09:36:22;5.47;;;1.77;;
32637;SDS011;19045;52.268;10.506;2023-03-23T09:38:52;3.47;;;1.48;;
32637;SDS011;19045;52.268;10.506;2023-03-23T09:41:28;3.22;;;1.60;;
32637;SDS011;19045;52.268;10.506;2023-03-23T09:46:49;2.67;;;1.38;;
32637;SDS011;19045;52.268;10.506;2023-03-23T09:49:23;3.15;;;1.67;;
32637;SDS011;19045;52.268;10.506;2023-03-23T09:51:54;7.13;;;1.60;;
32637;SDS011;19045;52.268;10.506;2023-03-23T09:54:26;4.75;;;1.45;;
32637;SDS011;19045;52.268;10.506;2023-03-23T09:56:54;1.45;;;1.10;;
32637;SDS011;19045;52.268;10.506;2023-03-23T09:59:23;6.25;;;1.83;;
32637;SDS011;19045;52.268;10.506;2023-03-23T10:01:53;7.13;;;2.38;;
32637;SDS011;19045;52.268;10.506;2023-03-23T10:04:27;3.72;;;1.85;;
32637;SDS011;19045;52.268;10.506;2023-03-23T10:07:00;5.88;;;2.10;;
32637;SDS011;19045;52.268;10.506;2023-03-23T10:09:37;8.35;;;1.95;;
32637;SDS011;19045;52.268;10.506;2023-03-23T10:12:07;6.72;;;1.73;;
32637;SDS011;19045;52.268;10.506;2023-03-23T10:14:45;4.32;;;1.58;;
32637;SDS011;19045;52.268;10.506;2023-03-23T10:17:37;4.32;;;1.50;;
32637;SDS011;19045;52.268;10.506;2023-03-23T10:20:20;4.45;;;1.63;;
32637;SDS011;19045;52.268;10.506;2023-03-23T10:25:27;5.10;;;1.50;;
32637;SDS011;19045;52.268;10.506;2023-03-23T10:27:56;5.70;;;1.55;;
32637;SDS011;19045;52.268;10.506;2023-03-23T10:30:29;4.53;;;1.42;;
32637;SDS011;19045;52.268;10.506;2023-03-23T10:33:01;5.53;;;1.75;;
32637;SDS011;19045;52.268;10.506;2023-03-23T10:35:32;6.13;;;1.80;;
32637;SDS011;19045;52.268;10.506;2023-03-23T10:38:03;5.85;;;1.48;;
32637;SDS011;19045;52.268;10.506;2023-03-23T10:43:12;4.60;;;1.70;;
32637;SDS011;19045;52.268;10.506;2023-03-23T10:45:40;3.25;;;1.40;;
32637;SDS011;19045;52.268;10.506;2023-03-23T10:48:12;3.97;;;1.45;;
32637;SDS011;19045;52.268;10.506;2023-03-23T10:50:43;5.85;;;1.85;;
32637;SDS011;19045;52.268;10.506;2023-03-23T10:53:15;4.43;;;1.58;;
32637;SDS011;19045;52.268;10.506;2023-03-23T10:55:45;7.05;;;1.63;;
32637;SDS011;19045;52.268;10.506;2023-03-23T10:58:13;4.68;;;1.75;;
32637;SDS011;19045;52.268;10.506;2023-03-23T11:00:50;4.63;;;1.80;;
32637;SDS011;19045;52.268;10.506;2023-03-23T11:03:22;6.55;;;1.45;;
32637;SDS011;19045;52.268;10.506;2023-03-23T11:05:58;5.75;;;1.40;;
32637;SDS011;19045;52.268;10.506;2023-03-23T11:08:29;9.00;;;1.70;;
32637;SDS011;19045;52.268;10.506;2023-03-23T11:11:11;6.72;;;1.63;;
32637;SDS011;19045;52.268;10.506;2023-03-23T11:13:42;3.88;;;1.63;;
32637;SDS011;19045;52.268;10.506;2023-03-23T11:16:10;5.45;;;1.80;;
32637;SDS011;19045;52.268;10.506;2023-03-23T11:18:48;5.32;;;1.73;;
32637;SDS011;19045;52.268;10.506;2023-03-23T11:21:15;6.82;;;1.90;;
32637;SDS011;19045;52.268;10.506;2023-03-23T11:23:43;5.55;;;1.80;;
32637;SDS011;19045;52.268;10.506;2023-03-23T11:26:17;7.72;;;1.40;;
32637;SDS011;19045;52.268;10.506;2023-03-23T11:28:51;3.78;;;1.58;;
32637;SDS011;19045;52.268;10.506;2023-03-23T11:31:21;5.05;;;1.65;;
32637;SDS011;19045;52.268;10.506;2023-03-23T11:33:51;7.25;;;1.70;;
32637;SDS011;19045;52.268;10.506;2023-03-23T11:36:20;8.32;;;1.52;;
32637;SDS011;19045;52.268;10.506;2023-03-23T11:38:51;4.03;;;1.23;;
32637;SDS011;19045;52.268;10.506;2023-03-23T11:41:24;7.22;;;1.52;;
32637;SDS011;19045;52.268;10.506;2023-03-23T11:43:54;6.65;;;1.70;;
32637;SDS011;19045;52.268;10.506;2023-03-23T11:46:25;4.82;;;1.40;;
32637;SDS011;19045;52.268;10.506;2023-03-23T11:49:00;5.90;;;1.50;;
32637;SDS011;19045;52.268;10.506;2023-03-23T11:51:30;5.88;;;1.88;;
32637;SDS011;19045;52.268;10.506;2023-03-23T11:54:05;5.25;;;1.40;;
32637;SDS011;19045;52.268;10.506;2023-03-23T11:56:41;5.68;;;1.40;;
32637;SDS011;19045;52.268;10.506;2023-03-23T11:59:10;4.18;;;1.17;;
32637;SDS011;19045;52.268;10.506;2023-03-23T12:01:47;5.22;;;1.52;;
32637;SDS011;19045;52.268;10.506;2023-03-23T12:04:30;5.43;;;1.40;;
32637;SDS011;19045;52.268;10.506;2023-03-23T12:07:04;2.92;;;1.23;;
32637;SDS011;19045;52.268;10.506;2023-03-23T12:09:51;4.85;;;1.23;;
32637;SDS011;19045;52.268;10.506;2023-03-23T12:12:29;4.85;;;1.42;;
32637;SDS011;19045;52.268;10.506;2023-03-23T12:15:07;5.30;;;1.77;;
32637;SDS011;19045;52.268;10.506;2023-03-23T12:17:44;5.47;;;1.40;;
32637;SDS011;19045;52.268;10.506;2023-03-23T12:20:20;4.22;;;1.30;;
32637;SDS011;19045;52.268;10.506;2023-03-23T12:23:01;3.58;;;1.40;;
32637;SDS011;19045;52.268;10.506;2023-03-23T12:34:25;9.05;;;1.75;;
32637;SDS011;19045;52.268;10.506;2023-03-23T12:37:10;6.07;;;1.70;;
32637;SDS011;19045;52.268;10.506;2023-03-23T12:39:58;9.32;;;1.73;;
32637;SDS011;19045;52.268;10.506;2023-03-23T12:42:48;7.93;;;1.83;;
32637;SDS011;19045;52.268;10.506;2023-03-23T12:45:37;7.70;;;1.80;;
32637;SDS011;19045;52.268;10.506;2023-03-23T12:48:31;5.07;;;1.70;;
32637;SDS011;19045;52.268;10.506;2023-03-23T12:53:50;8.52;;;2.45;;
32637;SDS011;19045;52.268;10.506;2023-03-23T12:56:23;9.43;;;1.83;;
32637;SDS011;19045;52.268;10.506;2023-03-23T12:58:57;7.03;;;2.17;;
32637;SDS011;19045;52.268;10.506;2023-03-23T13:01:34;4.40;;;1.38;;
32637;SDS011;19045;52.268;10.506;2023-03-23T13:04:06;6.65;;;2.30;;
32637;SDS011;19045;52.268;10.506;2023-03-23T13:06:37;7.88;;;1.70;;
32637;SDS011;19045;52.268;10.506;2023-03-23T13:09:07;6.30;;;1.67;;
32637;SDS011;19045;52.268;10.506;2023-03-23T13:11:40;5.28;;;1.80;;
32637;SDS011;19045;52.268;10.506;2023-03-23T13:14:15;4.95;;;1.58;;
32637;SDS011;19045;52.268;10.506;2023-03-23T13:16:55;7.47;;;1.67;;
32637;SDS011;19045;52.268;10.506;2023-03-23T13:19:29;7.88;;;1.42;;
32637;SDS011;19045;52.268;10.506;2023-03-23T13:22:01;5.57;;;1.75;;
32637;SDS011;19045;52.268;10.506;2023-03-23T13:24:33;8.13;;;1.48;;
32637;SDS011;19045;52.268;10.506;2023-03-23T13:27:02;7.38;;;1.80;;
32637;SDS011;19045;52.268;10.506;2023-03-23T13:29:32;3.22;;;1.33;;
32637;SDS011;19045;52.268;10.506;2023-03-23T13:32:09;7.82;;;1.50;;
32637;SDS011;19045;52.268;10.506;2023-03-23T13:34:39;5.88;;;1.70;;
32637;SDS011;19045;52.268;10.506;2023-03-23T13:37:09;3.63;;;1.17;;
32637;SDS011;19045;52.268;10.506;2023-03-23T13:39:49;10.23;;;1.38;;
32637;SDS011;19045;52.268;10.506;2023-03-23T13:42:21;5.22;;;1.30;;
32637;SDS011;19045;52.268;10.506;2023-03-23T13:44:56;3.47;;;1.20;;
32637;SDS011;19045;52.268;10.506;2023-03-23T13:47:39;7.30;;;1.75;;
32637;SDS011;19045;52.268;10.506;2023-03-23T13:50:11;5.88;;;1.73;;
32637;SDS011;19045;52.268;10.506;2023-03-23T13:52:46;4.50;;;1.80;;
32637;SDS011;19045;52.268;10.506;2023-03-23T13:55:19;4.80;;;1.15;;
32637;SDS011;19045;52.268;10.506;2023-03-23T13:57:49;4.45;;;1.27;;
32637;SDS011;19045;52.268;10.506;2023-03-23T14:00:26;4.13;;;1.40;;
32637;SDS011;19045;52.268;10.506;2023-03-23T14:03:13;4.30;;;1.58;;
32637;SDS011;19045;52.268;10.506;2023-03-23T14:05:43;3.47;;;1.50;;
32637;SDS011;19045;52.268;10.506;2023-03-23T14:08:19;2.22;;;0.95;;
32637;SDS011;19045;52.268;10.506;2023-03-23T14:10:50;2.85;;;0.82;;
32637;SDS011;19045;52.268;10.506;2023-03-23T14:13:21;2.22;;;1.10;;
32637;SDS011;19045;52.268;10.506;2023-03-23T14:15:55;1.50;;;0.70;;
32637;SDS011;19045;52.268;10.506;2023-03-23T14:18:25;1.65;;;0.70;;
32637;SDS011;19045;52.268;10.506;2023-03-23T14:20:56;4.13;;;0.75;;
32637;SDS011;19045;52.268;10.506;2023-03-23T14:23:23;2.15;;;0.50;;
32637;SDS011;19045;52.268;10.506;2023-03-23T14:25:58;1.38;;;0.40;;
32637;SDS011;19045;52.268;10.506;2023-03-23T14:28:36;1.95;;;0.70;;
32637;SDS011;19045;52.268;10.506;2023-03-23T14:31:04;0.65;;;0.47;;
32637;SDS011;19045;52.268;10.506;2023-03-23T14:33:39;2.17;;;0.70;;
32637;SDS011;19045;52.268;10.506;2023-03-23T14:36:07;4.55;;;0.80;;
32637;SDS011;19045;52.268;10.506;2023-03-23T14:38:34;1.65;;;0.55;;
32637;SDS011;19045;52.268;10.506;2023-03-23T14:41:01;2.88;;;0.70;;
32637;SDS011;19045;52.268;10.506;2023-03-23T14:43:29;2.35;;;0.90;;
32637;SDS011;19045;52.268;10.506;2023-03-23T14:46:00;1.73;;;0.60;;
32637;SDS011;19045;52.268;10.506;2023-03-23T14:48:31;2.83;;;0.90;;
32637;SDS011;19045;52.268;10.506;2023-03-23T14:51:00;4.60;;;1.10;;
32637;SDS011;19045;52.268;10.506;2023-03-23T14:53:30;2.20;;;0.90;;
32637;SDS011;19045;52.268;10.506;2023-03-23T14:56:00;3.40;;;0.80;;
32637;SDS011;19045;52.268;10.506;2023-03-23T14:58:29;3.83;;;0.93;;
32637;SDS011;19045;52.268;10.506;2023-03-23T15:00:58;4.10;;;0.90;;
32637;SDS011;19045;52.268;10.506;2023-03-23T15:03:26;6.45;;;0.90;;
32637;SDS011;19045;52.268;10.506;2023-03-23T15:05:56;4.00;;;1.15;;
32637;SDS011;19045;52.268;10.506;2023-03-23T15:08:26;2.08;;;0.73;;
32637;SDS011;19045;52.268;10.506;2023-03-23T15:10:58;3.45;;;1.17;;
32637;SDS011;19045;52.268;10.506;2023-03-23T15:13:31;1.45;;;1.00;;
32637;SDS011;19045;52.268;10.506;2023-03-23T15:16:02;4.10;;;1.10;;